createdAt,value
2022-11-15T00:00:35.596Z,-1.8
2022-11-15T00:05:58.241Z,-1.9
2022-11-15T00:11:31.700Z,-2
2022-11-15T00:16:53.979Z,-2.1
2022-11-15T00:22:32.734Z,-2.1
2022-11-15T00:28:10.228Z,-2.2
2022-11-15T00:33:34.477Z,-2.2
2022-11-15T00:39:12.217Z,-2.2
2022-11-15T00:44:51.217Z,-2.3
2022-11-15T00:49:57.361Z,-2.2
2022-11-15T00:55:36.664Z,-2.1
2022-11-15T01:01:14.016Z,-2.1
2022-11-15T01:06:38.069Z,-2.1
2022-11-15T01:12:15.684Z,-2
2022-11-15T01:17:53.039Z,-2
2022-11-15T01:23:31.125Z,-1.9
2022-11-15T01:29:09.056Z,-1.9
2022-11-15T01:34:46.325Z,-1.8
2022-11-15T01:40:23.255Z,-1.7
2022-11-15T01:46:01.051Z,-1.6
2022-11-15T01:51:22.710Z,-1.6
2022-11-15T01:57:00.483Z,-1.7
2022-11-15T02:02:38.457Z,-1.7
2022-11-15T02:08:01.233Z,-1.7
2022-11-15T02:12:51.613Z,-1.8
2022-11-15T02:18:28.205Z,-1.8
2022-11-15T02:24:05.319Z,-1.9
2022-11-15T02:29:12.037Z,-1.9
2022-11-15T02:34:49.042Z,-2
2022-11-15T02:40:25.761Z,-2.1
2022-11-15T02:45:47.674Z,-2.1
2022-11-15T02:51:24.821Z,-2.1
2022-11-15T02:56:15.414Z,-2.1
2022-11-15T03:01:52.853Z,-2.1
2022-11-15T03:07:15.776Z,-2.1
2022-11-15T03:12:37.403Z,-2.2
2022-11-15T03:17:43.773Z,-2.3
2022-11-15T03:23:04.994Z,-2.3
2022-11-15T03:28:26.063Z,-2.3
2022-11-15T03:33:51.218Z,-2.3
2022-11-15T03:39:16.328Z,-2.3
2022-11-15T03:44:55.597Z,-2.2
2022-11-15T03:50:32.587Z,-2.1
2022-11-15T03:56:10.038Z,-1.9
2022-11-15T04:01:16.375Z,-1.8
2022-11-15T04:06:38.800Z,-1.6
2022-11-15T04:11:46.378Z,-1.5
2022-11-15T04:17:07.813Z,-1.3
2022-11-15T04:22:45.311Z,-1.1
2022-11-15T04:28:28.743Z,-1
2022-11-15T04:33:51.245Z,-0.9
2022-11-15T04:39:33.671Z,-0.8
2022-11-15T04:45:10.669Z,-0.6
2022-11-15T04:50:32.015Z,-0.5
2022-11-15T04:56:10.030Z,-0.4
2022-11-15T05:01:40.723Z,-0.3
2022-11-15T05:07:20.850Z,-0.3
2022-11-15T05:12:43.073Z,-0.1
2022-11-15T05:18:05.130Z,-0.1
2022-11-15T05:23:45.360Z,0
2022-11-15T05:29:07.515Z,0.1
2022-11-15T05:34:29.754Z,0.2
2022-11-15T05:40:07.186Z,0.2
2022-11-15T05:45:28.804Z,0.3
2022-11-15T05:51:05.526Z,0.4
2022-11-15T05:56:32.070Z,0.6
2022-11-15T06:01:54.501Z,0.6
2022-11-15T06:07:17.900Z,0.7
2022-11-15T06:12:55.008Z,0.8
2022-11-15T06:18:39.069Z,1
2022-11-15T06:24:00.137Z,1.1
2022-11-15T06:29:37.658Z,1.3
2022-11-15T06:34:59.866Z,1.6
2022-11-15T06:40:36.360Z,1.8
2022-11-15T06:46:14.042Z,1.9
2022-11-15T06:51:51.200Z,2.3
2022-11-15T06:57:28.835Z,2.6
2022-11-15T07:03:06.958Z,3.1
2022-11-15T07:08:44.254Z,3.7
2022-11-15T07:14:26.887Z,4.3
2022-11-15T07:19:49.240Z,4.9
2022-11-15T07:25:11.256Z,5.4
2022-11-15T07:30:35.495Z,5.9
2022-11-15T07:36:12.976Z,6.4
2022-11-15T07:41:50.394Z,6.8
2022-11-15T07:47:28.663Z,7.3
2022-11-15T07:53:00.925Z,7.6
2022-11-15T07:58:24.018Z,7.9
2022-11-15T08:04:03.379Z,8.4
2022-11-15T08:09:41.444Z,8.6
2022-11-15T08:15:19.985Z,8.8
2022-11-15T08:21:02.256Z,8.9
2022-11-15T08:26:40.996Z,9.1
2022-11-15T08:32:18.877Z,9.4
2022-11-15T08:38:11.303Z,9.8
2022-11-15T08:43:50.116Z,10.3
2022-11-15T08:49:28.242Z,10.6
2022-11-15T08:55:06.227Z,11.1
2022-11-15T09:00:46.227Z,11.4
2022-11-15T09:06:24.984Z,11.8
2022-11-15T09:12:36.489Z,12.1
2022-11-15T09:18:15.783Z,12.4
2022-11-15T09:24:00.105Z,12.8
2022-11-15T09:30:13.430Z,13.1
2022-11-15T09:35:54.218Z,13.4
2022-11-15T09:41:38.342Z,13.5
2022-11-15T09:47:17.840Z,13.8
2022-11-15T09:52:55.170Z,14.4
2022-11-15T09:59:40.835Z,15
2022-11-15T10:05:39.367Z,15.3
2022-11-15T10:11:41.700Z,16.1
2022-11-15T10:17:19.482Z,17.1
2022-11-15T10:22:58.136Z,17.9
2022-11-15T10:28:25.293Z,18.6
2022-11-15T10:34:05.762Z,19.8
2022-11-15T10:47:39.415Z,24.1
2022-11-15T10:53:17.648Z,25.6
2022-11-15T10:59:00.484Z,26.3
2022-11-15T11:04:44.093Z,26.6
2022-11-15T11:11:02.944Z,27.3
2022-11-15T11:16:41.075Z,28.8
2022-11-15T11:22:09.283Z,31.1
2022-11-15T11:27:48.048Z,33.9
2022-11-15T11:33:29.264Z,40.1
2022-11-15T11:39:07.250Z,47.3
2022-11-15T11:44:29.284Z,52.8
2022-11-15T11:50:07.221Z,55.4
2022-11-15T11:55:45.898Z,56.4
2022-11-15T12:01:29.228Z,42.4
2022-11-15T12:07:07.677Z,42.8
2022-11-15T12:12:51.324Z,48.6
2022-11-15T12:18:29.383Z,52.9
2022-11-15T12:24:07.117Z,56.4
2022-11-15T12:29:57.912Z,43.8
2022-11-15T12:35:36.231Z,40.8
2022-11-15T12:41:16.202Z,44.9
2022-11-15T12:46:23.174Z,47.7
2022-11-15T12:51:30.059Z,48.9
2022-11-15T12:56:52.335Z,49.7
2022-11-15T13:02:31.057Z,45.8
2022-11-15T13:08:08.003Z,39.6
2022-11-15T13:13:49.253Z,39.1
2022-11-15T13:19:27.099Z,39.9
2022-11-15T13:25:05.042Z,40.3
2022-11-15T13:30:27.028Z,40.3
2022-11-15T13:36:21.860Z,39.6
2022-11-15T13:42:00.671Z,38.7
2022-11-15T13:47:39.338Z,37.5
2022-11-15T13:53:21.041Z,36.1
2022-11-15T13:58:59.655Z,34.6
2022-11-15T14:04:37.063Z,32.8
2022-11-15T14:10:20.731Z,31.1
2022-11-15T14:15:58.588Z,29.4
2022-11-15T14:21:20.963Z,27.9
2022-11-15T14:26:46.223Z,26.3
2022-11-15T14:32:08.326Z,24.9
2022-11-15T14:37:29.757Z,23.4
2022-11-15T14:42:52.555Z,22
2022-11-15T14:48:14.530Z,20.6
2022-11-15T14:53:43.710Z,19.1
2022-11-15T14:59:06.232Z,17.8
2022-11-15T15:04:33.998Z,16.3
2022-11-15T15:09:46.773Z,14.8
2022-11-15T15:15:48.212Z,13.2
2022-11-15T15:21:12.953Z,11.9
2022-11-15T15:26:27.404Z,11
2022-11-15T15:31:50.272Z,10.3
2022-11-15T15:37:12.120Z,9.6
2022-11-15T15:42:36.932Z,9
2022-11-15T15:47:59.283Z,8.4
2022-11-15T15:53:30.056Z,7.9
2022-11-15T15:58:24.386Z,7.6
2022-11-15T16:03:31.766Z,7.3
2022-11-15T16:08:53.647Z,6.9
2022-11-15T16:14:30.466Z,6.6
2022-11-15T16:19:53.330Z,6.2
2022-11-15T16:25:15.785Z,5.9
2022-11-15T16:30:38.386Z,5.6
2022-11-15T16:36:08.912Z,5.3
2022-11-15T16:41:20.769Z,5
2022-11-15T16:46:47.330Z,4.8
2022-11-15T16:52:10.040Z,4.5
2022-11-15T16:57:31.723Z,4.3
2022-11-15T17:08:06.000Z,3.8
2022-11-15T17:13:12.888Z,3.7
2022-11-15T17:18:34.756Z,3.4
2022-11-15T17:23:57.059Z,3.3
2022-11-15T17:29:24.084Z,3.1
2022-11-15T17:34:31.082Z,2.9
2022-11-15T17:39:53.391Z,2.8
2022-11-15T17:45:31.474Z,2.6
2022-11-15T17:50:53.921Z,2.4
2022-11-15T17:56:21.770Z,2.3
2022-11-15T18:02:07.055Z,2.2
2022-11-15T18:07:31.236Z,2.1
2022-11-15T18:13:08.803Z,1.9
2022-11-15T18:18:35.464Z,1.8
2022-11-15T18:24:13.666Z,1.6
2022-11-15T18:29:53.138Z,1.4
2022-11-15T18:35:01.169Z,1.4
2022-11-15T18:40:43.844Z,1.3
2022-11-15T18:46:06.697Z,1.1
2022-11-15T18:51:29.297Z,1
2022-11-15T18:57:07.574Z,0.9
2022-11-15T19:02:45.302Z,0.8
2022-11-15T19:08:31.651Z,0.8
2022-11-15T19:14:10.553Z,0.7
2022-11-15T19:19:47.852Z,0.6
2022-11-15T19:25:29.683Z,0.6
2022-11-15T19:31:07.761Z,0.5
2022-11-15T19:36:51.106Z,0.4
2022-11-15T19:42:33.464Z,0.4
2022-11-15T19:48:02.321Z,0.4
2022-11-15T19:53:42.899Z,0.4
2022-11-15T19:59:05.772Z,0.4
2022-11-15T20:04:44.207Z,0.4
2022-11-15T20:10:08.114Z,0.4
2022-11-15T20:15:29.983Z,0.4
2022-11-15T20:21:10.908Z,0.4
2022-11-15T20:26:49.045Z,0.4
2022-11-15T20:32:26.611Z,0.5
2022-11-15T20:38:05.018Z,0.5
2022-11-15T20:43:32.854Z,0.6
2022-11-15T20:49:15.120Z,0.6
2022-11-15T20:55:23.705Z,0.7
2022-11-15T21:00:46.915Z,0.7
2022-11-15T21:06:10.423Z,0.8
2022-11-15T21:11:53.849Z,0.8
2022-11-15T21:17:18.254Z,0.8
2022-11-15T21:22:46.391Z,0.8
2022-11-15T21:28:24.462Z,0.8
2022-11-15T21:34:08.371Z,0.8
2022-11-15T21:39:31.120Z,0.7
2022-11-15T21:45:09.730Z,0.6
2022-11-15T21:50:52.446Z,0.6
2022-11-15T21:55:43.671Z,0.6
2022-11-15T22:01:06.619Z,0.5
2022-11-15T22:06:34.244Z,0.5
2022-11-15T22:12:12.314Z,0.4
2022-11-15T22:17:36.290Z,0.5
2022-11-15T22:23:29.504Z,0.4
2022-11-15T22:28:41.570Z,0.4
2022-11-15T22:33:47.686Z,0.4
2022-11-15T22:39:56.439Z,0.4
2022-11-15T22:45:33.383Z,0.3
2022-11-15T22:51:11.655Z,0.3
2022-11-15T22:56:54.282Z,0.3
2022-11-15T23:02:01.150Z,0.1
2022-11-15T23:07:43.080Z,0.1
2022-11-15T23:13:20.978Z,0
2022-11-15T23:18:59.130Z,-0.1
2022-11-15T23:25:00.762Z,-0.1
2022-11-15T23:30:38.978Z,-0.1
2022-11-15T23:36:23.144Z,-0.1
2022-11-15T23:42:04.513Z,-0.1
2022-11-15T23:47:45.241Z,-0.1
2022-11-15T23:53:22.750Z,-0.2
2022-11-15T23:58:59.153Z,-0.2
